createdAt,value
2023-03-04T00:00:03.055Z,1015.1
2023-03-04T00:01:19.496Z,1015.2
2023-03-04T00:02:35.686Z,1015.1
2023-03-04T00:03:51.872Z,1015.1
2023-03-04T00:05:07.801Z,1015.1
2023-03-04T00:06:24.241Z,1015.1
2023-03-04T00:07:40.431Z,1015.1
2023-03-04T00:08:56.627Z,1015.1
2023-03-04T00:10:12.804Z,1015.1
2023-03-04T00:11:28.726Z,1015.1
2023-03-04T00:12:44.206Z,1015
2023-03-04T00:14:00.125Z,1015
2023-03-04T00:15:16.570Z,1015
2023-03-04T00:16:32.767Z,1014.9
2023-03-04T00:17:48.955Z,1014.9
2023-03-04T00:19:05.147Z,1015
2023-03-04T00:20:21.062Z,1015
2023-03-04T00:21:37.506Z,1014.9
2023-03-04T00:22:53.708Z,1014.9
2023-03-04T00:24:09.635Z,1014.9
2023-03-04T00:25:26.068Z,1014.8
2023-03-04T00:26:42.267Z,1014.8
2023-03-04T00:27:58.445Z,1014.8
2023-03-04T00:29:13.664Z,1014.8
2023-03-04T00:30:29.834Z,1014.8
2023-03-04T00:31:46.039Z,1014.7
2023-03-04T00:33:02.208Z,1014.7
2023-03-04T00:34:18.129Z,1014.8
2023-03-04T00:35:34.590Z,1014.8
2023-03-04T00:36:50.789Z,1014.8
2023-03-04T00:38:06.960Z,1014.8
2023-03-04T00:39:22.892Z,1014.8
2023-03-04T00:40:39.350Z,1014.8
2023-03-04T00:41:55.531Z,1014.8
2023-03-04T00:43:11.445Z,1014.8
2023-03-04T00:44:27.897Z,1014.8
2023-03-04T00:45:43.100Z,1014.8
2023-03-04T00:46:59.290Z,1014.8
2023-03-04T00:48:15.478Z,1014.7
2023-03-04T00:49:31.673Z,1014.8
2023-03-04T00:50:47.597Z,1014.7
2023-03-04T00:52:04.052Z,1014.7
2023-03-04T00:53:20.241Z,1014.7
2023-03-04T00:54:36.149Z,1014.7
2023-03-04T00:55:52.338Z,1014.7
2023-03-04T00:58:24.717Z,1014.7
2023-03-04T00:59:41.164Z,1014.7
2023-03-04T01:00:57.092Z,1014.6
2023-03-04T01:02:12.566Z,1014.6
2023-03-04T01:03:28.739Z,1014.6
2023-03-04T01:04:44.940Z,1014.6
2023-03-04T01:06:00.851Z,1014.6
2023-03-04T01:07:17.309Z,1014.6
2023-03-04T01:08:33.498Z,1014.6
2023-03-04T01:09:49.415Z,1014.6
2023-03-04T01:11:05.874Z,1014.7
2023-03-04T01:12:22.057Z,1014.6
2023-03-04T01:13:37.971Z,1014.6
2023-03-04T01:14:54.434Z,1014.6
2023-03-04T01:16:10.352Z,1014.5
2023-03-04T01:17:26.809Z,1014.5
2023-03-04T01:18:42.007Z,1014.5
2023-03-04T01:19:57.927Z,1014.5
2023-03-04T01:21:14.105Z,1014.5
2023-03-04T01:22:30.579Z,1014.5
2023-03-04T01:23:46.762Z,1014.5
2023-03-04T01:25:02.955Z,1014.5
2023-03-04T01:26:19.135Z,1014.4
2023-03-04T01:27:35.320Z,1014.3
2023-03-04T01:28:51.234Z,1014.3
2023-03-04T01:30:07.429Z,1014.3
2023-03-04T01:31:23.610Z,1014.3
2023-03-04T01:32:40.067Z,1014.3
2023-03-04T01:33:56.273Z,1014.3
2023-03-04T01:35:11.184Z,1014.2
2023-03-04T01:36:27.375Z,1014.2
2023-03-04T01:37:43.552Z,1014.2
2023-03-04T01:39:00.028Z,1014.3
2023-03-04T01:40:16.215Z,1014.2
2023-03-04T01:41:32.121Z,1014.2
2023-03-04T01:42:48.592Z,1014.2
2023-03-04T01:44:04.770Z,1014.2
2023-03-04T01:45:20.692Z,1014.2
2023-03-04T01:46:37.148Z,1014.2
2023-03-04T01:47:53.344Z,1014.2
2023-03-04T01:49:09.235Z,1014.2
2023-03-04T01:50:25.724Z,1014.2
2023-03-04T01:51:40.927Z,1014.3
2023-03-04T01:52:57.105Z,1014.2
2023-03-04T01:54:13.291Z,1014.2
2023-03-04T01:55:29.474Z,1014.2
2023-03-04T01:56:45.671Z,1014.1
2023-03-04T01:58:01.862Z,1014.1
2023-03-04T01:59:16.772Z,1014.1
2023-03-04T02:00:33.249Z,1014.1
2023-03-04T02:01:49.432Z,1014.1
2023-03-04T02:03:05.622Z,1014.1
2023-03-04T02:04:21.809Z,1014
2023-03-04T02:05:38.001Z,1014
2023-03-04T02:06:53.911Z,1014
2023-03-04T02:08:10.384Z,1014
2023-03-04T02:09:26.577Z,1014
2023-03-04T02:10:42.758Z,1014
2023-03-04T02:11:58.645Z,1014
2023-03-04T02:13:15.132Z,1014
2023-03-04T02:14:31.029Z,1013.9
2023-03-04T02:15:46.230Z,1014
2023-03-04T02:17:02.701Z,1014
2023-03-04T02:18:18.885Z,1013.9
2023-03-04T02:19:35.081Z,1013.9
2023-03-04T02:20:51.280Z,1013.9
2023-03-04T02:22:07.156Z,1013.9
2023-03-04T02:23:23.652Z,1013.8
2023-03-04T02:24:39.832Z,1013.9
2023-03-04T02:25:56.010Z,1013.8
2023-03-04T02:27:11.912Z,1013.9
2023-03-04T02:28:28.397Z,1013.8
2023-03-04T02:29:44.296Z,1013.8
2023-03-04T02:31:00.764Z,1013.8
2023-03-04T02:32:15.675Z,1013.8
2023-03-04T02:33:32.154Z,1013.7
2023-03-04T02:34:48.052Z,1013.7
2023-03-04T02:36:04.232Z,1013.6
2023-03-04T02:37:20.717Z,1013.7
2023-03-04T02:38:36.902Z,1013.6
2023-03-04T02:39:53.106Z,1013.6
2023-03-04T02:41:08.986Z,1013.6
2023-03-04T02:42:25.479Z,1013.5
2023-03-04T02:43:41.672Z,1013.5
2023-03-04T02:44:57.546Z,1013.5
2023-03-04T02:46:14.028Z,1013.5
2023-03-04T02:47:30.215Z,1013.5
2023-03-04T02:48:45.126Z,1013.4
2023-03-04T02:50:01.606Z,1013.4
2023-03-04T02:51:17.802Z,1013.5
2023-03-04T02:52:33.987Z,1013.4
2023-03-04T02:53:50.168Z,1013.4
2023-03-04T02:55:06.367Z,1013.4
2023-03-04T02:56:22.546Z,1013.4
2023-03-04T02:57:38.732Z,1013.4
2023-03-04T02:58:54.923Z,1013.4
2023-03-04T03:00:11.121Z,1013.4
2023-03-04T03:01:26.997Z,1013.4
2023-03-04T03:02:43.481Z,1013.3
2023-03-04T03:03:59.684Z,1013.4
2023-03-04T03:05:14.578Z,1013.4
2023-03-04T03:06:31.061Z,1013.3
2023-03-04T03:07:47.262Z,1013.4
2023-03-04T03:09:03.148Z,1013.4
2023-03-04T03:10:19.631Z,1013.4
2023-03-04T03:11:35.518Z,1013.4
2023-03-04T03:12:51.999Z,1013.4
2023-03-04T03:14:07.885Z,1013.4
2023-03-04T03:15:24.374Z,1013.4
2023-03-04T03:16:40.560Z,1013.3
2023-03-04T03:17:56.755Z,1013.4
2023-03-04T03:19:12.644Z,1013.4
2023-03-04T03:20:28.824Z,1013.4
2023-03-04T03:21:44.337Z,1013.3
2023-03-04T03:23:00.520Z,1013.4
2023-03-04T03:24:16.703Z,1013.4
2023-03-04T03:25:32.890Z,1013.3
2023-03-04T03:26:49.077Z,1013.4
2023-03-04T03:28:04.966Z,1013.3
2023-03-04T03:29:21.466Z,1013.4
2023-03-04T03:30:37.329Z,1013.4
2023-03-04T03:31:53.825Z,1013.3
2023-03-04T03:33:10.032Z,1013.3
2023-03-04T03:34:25.900Z,1013.3
2023-03-04T03:35:42.388Z,1013.3
2023-03-04T03:36:58.584Z,1013.3
2023-03-04T03:38:14.901Z,1013.3
2023-03-04T03:39:31.076Z,1013.3
2023-03-04T03:40:47.269Z,1013.2
2023-03-04T03:42:03.462Z,1013.2
2023-03-04T03:43:19.641Z,1013.2
2023-03-04T03:44:35.830Z,1013.2
2023-03-04T03:45:52.024Z,1013.1
2023-03-04T03:47:08.213Z,1013.2
2023-03-04T03:48:24.401Z,1013
2023-03-04T03:49:40.000Z,1013.1
2023-03-04T03:50:56.779Z,1013.1
2023-03-04T03:52:12.965Z,1013.1
2023-03-04T03:53:28.839Z,1013
2023-03-04T03:54:44.338Z,1013
2023-03-04T03:56:00.532Z,1013
2023-03-04T03:57:16.723Z,1013
2023-03-04T03:58:32.905Z,1013
2023-03-04T03:59:49.091Z,1013
2023-03-04T04:01:04.959Z,1013
2023-03-04T04:02:21.464Z,1012.9
2023-03-04T04:03:37.656Z,1013
2023-03-04T04:04:53.525Z,1013
2023-03-04T04:06:10.039Z,1013
2023-03-04T04:07:26.218Z,1013
2023-03-04T04:08:42.419Z,1013
2023-03-04T04:09:58.593Z,1013
2023-03-04T04:11:13.489Z,1013
2023-03-04T04:12:29.991Z,1013
2023-03-04T04:13:46.176Z,1012.9
2023-03-04T04:15:02.041Z,1013
2023-03-04T04:16:18.228Z,1013
2023-03-04T04:17:34.731Z,1013
2023-03-04T04:18:50.934Z,1012.9
2023-03-04T04:20:07.113Z,1012.9
2023-03-04T04:21:23.309Z,1012.9
2023-03-04T04:22:39.488Z,1012.9
2023-03-04T04:23:55.364Z,1012.9
2023-03-04T04:25:11.860Z,1012.9
2023-03-04T04:26:28.054Z,1012.9
2023-03-04T04:27:43.263Z,1012.9
2023-03-04T04:28:59.442Z,1012.9
2023-03-04T04:30:15.629Z,1012.9
2023-03-04T04:31:31.000Z,1012.8
2023-03-04T04:32:47.998Z,1012.9
2023-03-04T04:34:04.193Z,1012.8
2023-03-04T04:35:20.383Z,1012.9
2023-03-04T04:36:36.233Z,1012.8
2023-03-04T04:37:52.418Z,1012.8
2023-03-04T04:39:08.942Z,1012.9
2023-03-04T04:40:25.120Z,1012.8
2023-03-04T04:41:41.326Z,1012.8
2023-03-04T04:42:57.497Z,1012.8
2023-03-04T04:44:12.716Z,1012.8
2023-03-04T04:45:28.904Z,1012.8
2023-03-04T04:46:44.749Z,1012.8
2023-03-04T04:48:01.274Z,1012.7
2023-03-04T04:49:17.457Z,1012.8
2023-03-04T04:50:33.637Z,1012.7
2023-03-04T04:51:49.506Z,1012.8
2023-03-04T04:53:06.024Z,1012.8
2023-03-04T04:54:21.879Z,1012.8
2023-03-04T04:55:38.070Z,1012.7
2023-03-04T04:56:54.252Z,1012.7
2023-03-04T04:58:10.433Z,1012.6
2023-03-04T04:59:26.622Z,1012.8
2023-03-04T05:00:42.171Z,1012.7
2023-03-04T05:01:58.006Z,1012.7
2023-03-04T05:03:14.202Z,1012.6
2023-03-04T05:04:30.733Z,1012.7
2023-03-04T05:05:46.917Z,1012.7
2023-03-04T05:07:03.095Z,1012.7
2023-03-04T05:08:18.960Z,1012.7
2023-03-04T05:09:35.478Z,1012.7
2023-03-04T05:10:51.326Z,1012.6
2023-03-04T05:12:07.857Z,1012.6
2023-03-04T05:13:24.036Z,1012.6
2023-03-04T05:14:39.896Z,1012.7
2023-03-04T05:15:56.406Z,1012.7
2023-03-04T05:17:11.279Z,1012.8
2023-03-04T05:18:27.798Z,1012.7
2023-03-04T05:19:43.644Z,1012.7
2023-03-04T05:21:00.180Z,1012.7
2023-03-04T05:22:16.374Z,1012.7
2023-03-04T05:23:32.552Z,1012.6
2023-03-04T05:24:48.000Z,1012.6
2023-03-04T05:26:04.920Z,1012.6
2023-03-04T05:27:20.774Z,1012.7
2023-03-04T05:28:37.308Z,1012.6
2023-03-04T05:29:53.488Z,1012.6
2023-03-04T05:31:09.680Z,1012.6
2023-03-04T05:32:25.864Z,1012.6
2023-03-04T05:33:41.074Z,1012.6
2023-03-04T05:34:56.904Z,1012.6
2023-03-04T05:36:13.448Z,1012.6
2023-03-04T05:37:29.632Z,1012.6
2023-03-04T05:38:45.823Z,1012.6
2023-03-04T05:40:01.662Z,1012.5
2023-03-04T05:41:18.183Z,1012.5
2023-03-04T05:42:34.387Z,1012.6
2023-03-04T05:43:50.566Z,1012.5
2023-03-04T05:45:06.751Z,1012.6
2023-03-04T05:46:22.942Z,1012.6
2023-03-04T05:47:38.785Z,1012.6
2023-03-04T05:48:55.310Z,1012.6
2023-03-04T05:50:10.179Z,1012.6
2023-03-04T05:51:26.712Z,1012.6
2023-03-04T05:52:42.896Z,1012.6
2023-03-04T05:53:58.735Z,1012.6
2023-03-04T05:55:15.274Z,1012.6
2023-03-04T05:56:31.463Z,1012.6
2023-03-04T05:57:47.651Z,1012.6
2023-03-04T05:59:03.836Z,1012.6
2023-03-04T06:00:19.668Z,1012.6
2023-03-04T06:01:36.213Z,1012.6
2023-03-04T06:02:52.039Z,1012.6
2023-03-04T06:04:08.589Z,1012.6
2023-03-04T06:05:24.771Z,1012.6
2023-03-04T06:06:39.967Z,1012.5
2023-03-04T06:07:56.161Z,1012.6
2023-03-04T06:09:12.351Z,1012.6
2023-03-04T06:10:28.543Z,1012.5
2023-03-04T06:11:44.723Z,1012.6
2023-03-04T06:13:00.556Z,1012.7
2023-03-04T06:14:16.124Z,1012.6
2023-03-04T06:15:31.963Z,1012.6
2023-03-04T06:16:48.504Z,1012.7
2023-03-04T06:18:04.335Z,1012.6
2023-03-04T06:19:20.875Z,1012.7
2023-03-04T06:20:37.064Z,1012.7
2023-03-04T06:21:52.899Z,1012.6
2023-03-04T06:23:09.439Z,1012.6
2023-03-04T06:24:25.271Z,1012.6
2023-03-04T06:25:41.810Z,1012.7
2023-03-04T06:26:58.006Z,1012.6
2023-03-04T06:28:14.180Z,1012.7
2023-03-04T06:29:30.369Z,1012.6
2023-03-04T06:30:45.583Z,1012.6
2023-03-04T06:32:01.758Z,1012.6
2023-03-04T06:33:17.600Z,1012.6
2023-03-04T06:34:34.138Z,1012.6
2023-03-04T06:35:49.962Z,1012.7
2023-03-04T06:37:06.506Z,1012.6
2023-03-04T06:38:22.707Z,1012.6
2023-03-04T06:39:38.531Z,1012.6
2023-03-04T06:40:54.714Z,1012.7
2023-03-04T06:42:11.265Z,1012.6
2023-03-04T06:43:27.444Z,1012.6
2023-03-04T06:44:43.635Z,1012.7
2023-03-04T06:45:59.816Z,1012.7
2023-03-04T06:47:15.030Z,1012.7
2023-03-04T06:48:30.855Z,1012.7
2023-03-04T06:49:47.049Z,1012.7
2023-03-04T06:51:03.591Z,1012.7
2023-03-04T06:52:19.772Z,1012.7
2023-03-04T06:53:35.599Z,1012.8
2023-03-04T06:54:52.159Z,1012.8
2023-03-04T06:56:07.975Z,1012.7
2023-03-04T06:57:24.532Z,1012.7
2023-03-04T06:58:40.354Z,1012.7
2023-03-04T06:59:56.545Z,1012.7
2023-03-04T07:01:13.081Z,1012.7
2023-03-04T07:02:29.279Z,1012.7
2023-03-04T07:03:44.472Z,1012.7
2023-03-04T07:05:00.660Z,1012.7
2023-03-04T07:06:16.853Z,1012.7
2023-03-04T07:07:33.053Z,1012.7
2023-03-04T07:08:49.223Z,1012.7
2023-03-04T07:10:05.413Z,1012.7
2023-03-04T07:11:21.612Z,1012.7
2023-03-04T07:12:37.421Z,1012.7
2023-03-04T07:13:53.982Z,1012.7
2023-03-04T07:15:10.178Z,1012.7
2023-03-04T07:16:26.360Z,1012.6
2023-03-04T07:17:42.545Z,1012.7
2023-03-04T07:18:58.366Z,1012.7
2023-03-04T07:20:13.937Z,1012.8
2023-03-04T07:21:29.755Z,1012.7
2023-03-04T07:22:46.315Z,1012.7
2023-03-04T07:24:02.129Z,1012.8
2023-03-04T07:25:18.679Z,1012.7
2023-03-04T07:26:34.502Z,1012.8
2023-03-04T07:27:50.685Z,1012.8
2023-03-04T07:29:07.248Z,1012.7
2023-03-04T07:30:23.437Z,1012.7
2023-03-04T07:31:39.615Z,1012.7
2023-03-04T07:32:55.800Z,1012.7
2023-03-04T07:34:11.998Z,1012.8
2023-03-04T07:35:28.189Z,1012.6
2023-03-04T07:36:43.393Z,1012.7
2023-03-04T07:37:59.569Z,1012.7
2023-03-04T07:39:15.392Z,1012.7
2023-03-04T07:40:31.946Z,1012.8
2023-03-04T07:41:47.768Z,1012.7
2023-03-04T07:43:04.320Z,1012.7
2023-03-04T07:44:20.513Z,1012.7
2023-03-04T07:45:36.700Z,1012.7
2023-03-04T07:46:52.881Z,1012.8
2023-03-04T07:48:08.690Z,1012.7
2023-03-04T07:49:25.257Z,1012.7
2023-03-04T07:50:41.454Z,1012.7
2023-03-04T07:51:57.645Z,1012.7
2023-03-04T07:53:12.455Z,1012.8
2023-03-04T07:54:28.655Z,1012.8
2023-03-04T07:55:45.211Z,1012.7
2023-03-04T07:57:01.019Z,1012.7
2023-03-04T07:58:17.596Z,1012.8
2023-03-04T07:59:33.787Z,1012.7
2023-03-04T08:00:49.957Z,1012.7
2023-03-04T08:02:06.154Z,1012.7
2023-03-04T08:03:22.339Z,1012.7
2023-03-04T08:04:38.154Z,1012.7
2023-03-04T08:05:54.327Z,1012.7
2023-03-04T08:07:10.905Z,1012.7
2023-03-04T08:08:27.084Z,1012.7
2023-03-04T08:09:42.288Z,1012.6
2023-03-04T08:10:58.473Z,1012.6
2023-03-04T08:12:14.666Z,1012.6
2023-03-04T08:13:30.468Z,1012.6
2023-03-04T08:14:47.051Z,1012.6
2023-03-04T08:16:03.229Z,1012.6
2023-03-04T08:17:19.429Z,1012.6
2023-03-04T08:18:35.607Z,1012.6
2023-03-04T08:19:51.406Z,1012.6
2023-03-04T08:21:07.592Z,1012.5
2023-03-04T08:22:23.792Z,1012.5
2023-03-04T08:23:40.362Z,1012.6
2023-03-04T08:24:56.544Z,1012.6
2023-03-04T08:26:11.749Z,1012.5
2023-03-04T08:27:27.943Z,1012.6
2023-03-04T08:28:44.119Z,1012.6
2023-03-04T08:30:00.316Z,1012.6
2023-03-04T08:31:16.120Z,1012.6
2023-03-04T08:32:32.694Z,1012.5
2023-03-04T08:33:48.876Z,1012.5
2023-03-04T08:35:05.070Z,1012.5
2023-03-04T08:36:21.246Z,1012.5
2023-03-04T08:37:37.440Z,1012.5
2023-03-04T08:38:53.228Z,1012.5
2023-03-04T08:40:09.819Z,1012.5
2023-03-04T08:41:25.991Z,1012.5
2023-03-04T08:42:41.204Z,1012.5
2023-03-04T08:43:57.005Z,1012.5
2023-03-04T08:45:13.570Z,1012.4
2023-03-04T08:46:29.378Z,1012.5
2023-03-04T08:47:45.568Z,1012.5
2023-03-04T08:49:02.145Z,1012.3
2023-03-04T08:50:17.946Z,1012.4
2023-03-04T08:51:34.516Z,1012.5
2023-03-04T08:52:50.703Z,1012.3
2023-03-04T08:54:06.891Z,1012.4
2023-03-04T08:55:23.075Z,1012.4
2023-03-04T08:56:38.875Z,1012.3
2023-03-04T08:57:55.070Z,1012.3
2023-03-04T08:59:10.669Z,1012.4
2023-03-04T09:00:26.859Z,1012.3
2023-03-04T09:01:43.039Z,1012.3
2023-03-04T09:02:59.243Z,1012.3
2023-03-04T09:04:15.423Z,1012.3
2023-03-04T09:05:31.228Z,1012.3
2023-03-04T09:06:47.799Z,1012.2
2023-03-04T09:08:03.998Z,1012.3
2023-03-04T09:09:20.172Z,1012.3
2023-03-04T09:10:36.373Z,1012.3
2023-03-04T09:11:52.565Z,1012.3
2023-03-04T09:13:08.355Z,1012.3
2023-03-04T09:14:24.940Z,1012.3
2023-03-04T09:15:40.142Z,1012.4
2023-03-04T09:16:55.941Z,1012.3
2023-03-04T09:18:12.528Z,1012.3
2023-03-04T09:19:28.707Z,1012.3
2023-03-04T09:20:44.494Z,1012.3
2023-03-04T09:22:00.682Z,1012.3
2023-03-04T09:23:17.271Z,1012.3
2023-03-04T09:24:33.473Z,1012.3
2023-03-04T09:25:49.252Z,1012.4
2023-03-04T09:27:05.847Z,1012.4
2023-03-04T09:28:21.635Z,1012.4
2023-03-04T09:29:37.825Z,1012.5
2023-03-04T09:30:54.416Z,1012.4
2023-03-04T09:32:09.609Z,1012.5
2023-03-04T09:33:25.809Z,1012.4
2023-03-04T09:34:41.588Z,1012.4
2023-03-04T09:35:57.779Z,1012.4
2023-03-04T09:37:13.974Z,1012.4
2023-03-04T09:38:30.564Z,1012.4
2023-03-04T09:39:46.339Z,1012.5
2023-03-04T09:41:02.945Z,1012.5
2023-03-04T09:42:19.137Z,1012.5
2023-03-04T09:43:34.917Z,1012.4
2023-03-04T09:44:51.502Z,1012.3
2023-03-04T09:46:07.687Z,1012.4
2023-03-04T09:47:23.474Z,1012.5
2023-03-04T09:48:38.675Z,1012.5
2023-03-04T09:49:55.267Z,1012.5
2023-03-04T09:51:11.073Z,1012.4
2023-03-04T09:52:27.661Z,1012.4
2023-03-04T09:53:43.436Z,1012.5
2023-03-04T09:55:00.025Z,1012.5
2023-03-04T09:56:16.228Z,1012.3
2023-03-04T09:57:32.409Z,1012.4
2023-03-04T09:58:48.198Z,1012.5
2023-03-04T10:00:04.386Z,1012.4
2023-03-04T10:01:20.968Z,1012.5
2023-03-04T10:02:37.167Z,1012.5
2023-03-04T10:03:52.942Z,1012.4
2023-03-04T10:05:08.564Z,1012.4
2023-03-04T10:06:24.344Z,1012.4
2023-03-04T10:07:40.936Z,1012.4
2023-03-04T10:08:57.137Z,1012.4
2023-03-04T10:10:13.322Z,1012.4
2023-03-04T10:11:29.514Z,1012.4
2023-03-04T10:12:45.689Z,1012.3
2023-03-04T10:14:01.473Z,1012.4
2023-03-04T10:15:18.079Z,1012.3
2023-03-04T10:16:34.273Z,1012.4
2023-03-04T10:17:50.446Z,1012.3
2023-03-04T10:19:06.645Z,1012.4
2023-03-04T10:20:22.829Z,1012.4
2023-03-04T10:21:38.030Z,1012.3
2023-03-04T10:22:54.219Z,1012.3
2023-03-04T10:24:10.416Z,1012.4
2023-03-04T10:25:26.206Z,1012.4
2023-03-04T10:26:42.785Z,1012.3
2023-03-04T10:27:58.582Z,1012.3
2023-03-04T10:29:13.778Z,1012.3
2023-03-04T10:30:30.385Z,1012.4
2023-03-04T10:31:46.576Z,1012.3
2023-03-04T10:33:02.351Z,1012.4
2023-03-04T10:34:18.948Z,1012.3
2023-03-04T10:35:35.143Z,1012.4
2023-03-04T10:36:50.921Z,1012.3
2023-03-04T10:38:07.520Z,1012.3
2023-03-04T10:39:23.717Z,1012.4
2023-03-04T10:40:39.891Z,1012.4
2023-03-04T10:41:55.679Z,1012.3
2023-03-04T10:43:12.270Z,1012.2
2023-03-04T10:44:28.051Z,1012.3
2023-03-04T10:45:43.675Z,1012.2
2023-03-04T10:46:59.865Z,1012.3
2023-03-04T10:48:16.048Z,1012.2
2023-03-04T10:49:32.234Z,1012.2
2023-03-04T10:50:48.019Z,1012.2
2023-03-04T10:52:04.190Z,1012.2
2023-03-04T10:53:20.807Z,1012.3
2023-03-04T10:54:36.985Z,1012.3
2023-03-04T10:55:53.173Z,1012.3
2023-03-04T10:57:09.373Z,1012.3
2023-03-04T10:58:25.138Z,1012.3
2023-03-04T10:59:41.740Z,1012.3
2023-03-04T11:00:57.947Z,1012.3
2023-03-04T11:02:13.148Z,1012.3
2023-03-04T11:03:29.326Z,1012.3
2023-03-04T11:04:45.521Z,1012.3
2023-03-04T11:06:01.715Z,1012.2
2023-03-04T11:07:17.497Z,1012.2
2023-03-04T11:08:34.089Z,1012.3
2023-03-04T11:09:49.870Z,1012.3
2023-03-04T11:11:06.476Z,1012.3
2023-03-04T11:12:22.665Z,1012.3
2023-03-04T11:13:38.845Z,1012.3
2023-03-04T11:14:54.621Z,1012.3
2023-03-04T11:16:10.803Z,1012.3
2023-03-04T11:17:26.993Z,1012.3
2023-03-04T11:18:42.631Z,1012.3
2023-03-04T11:19:58.815Z,1012.4
2023-03-04T11:21:15.005Z,1012.4
2023-03-04T11:22:30.774Z,1012.4
2023-03-04T11:23:47.370Z,1012.4
2023-03-04T11:25:03.149Z,1012.4
2023-03-04T11:26:19.332Z,1012.4
2023-03-04T11:27:35.944Z,1012.5
2023-03-04T11:28:51.716Z,1012.5
2023-03-04T11:30:07.903Z,1012.5
2023-03-04T11:31:24.520Z,1012.4
2023-03-04T11:32:40.708Z,1012.5
2023-03-04T11:33:56.896Z,1012.4
2023-03-04T11:35:12.103Z,1012.5
2023-03-04T11:36:28.293Z,1012.4
2023-03-04T11:37:44.049Z,1012.5
2023-03-04T11:39:00.238Z,1012.5
2023-03-04T11:40:16.425Z,1012.4
2023-03-04T11:41:33.042Z,1012.5
2023-03-04T11:42:48.811Z,1012.5
2023-03-04T11:44:05.420Z,1012.5
2023-03-04T11:45:21.189Z,1012.4
2023-03-04T11:46:37.797Z,1012.4
2023-03-04T11:47:53.994Z,1012.5
2023-03-04T11:49:09.759Z,1012.5
2023-03-04T11:50:25.952Z,1012.4
2023-03-04T11:51:41.576Z,1012.4
2023-03-04T11:52:57.342Z,1012.4
2023-03-04T11:54:13.521Z,1012.4
2023-03-04T11:55:30.153Z,1012.4
2023-03-04T11:56:46.329Z,1012.3
2023-03-04T11:58:02.521Z,1012.4
2023-03-04T11:59:18.708Z,1012.4
2023-03-04T12:00:34.907Z,1012.4
2023-03-04T12:01:51.084Z,1012.4
2023-03-04T12:03:07.291Z,1012.4
2023-03-04T12:04:23.038Z,1012.4
2023-03-04T12:05:39.228Z,1012.4
2023-03-04T12:06:55.431Z,1012.5
2023-03-04T12:08:11.052Z,1012.4
2023-03-04T12:09:27.236Z,1012.4
2023-03-04T12:10:43.014Z,1012.5
2023-03-04T12:11:59.623Z,1012.5
2023-03-04T12:13:15.375Z,1012.4
2023-03-04T12:14:31.569Z,1012.4
2023-03-04T12:15:48.201Z,1012.4
2023-03-04T12:17:03.945Z,1012.4
2023-03-04T12:18:20.567Z,1012.4
2023-03-04T12:19:36.756Z,1012.5
2023-03-04T12:20:52.948Z,1012.5
2023-03-04T12:22:09.150Z,1012.4
2023-03-04T12:23:25.339Z,1012.4
2023-03-04T12:24:40.546Z,1012.4
2023-03-04T12:25:56.284Z,1012.4
2023-03-04T12:27:12.921Z,1012.4
2023-03-04T12:28:28.665Z,1012.5
2023-03-04T12:29:45.299Z,1012.5
2023-03-04T12:31:01.049Z,1012.5
2023-03-04T12:32:17.247Z,1012.4
2023-03-04T12:33:33.853Z,1012.4
2023-03-04T12:34:49.615Z,1012.3
2023-03-04T12:36:06.247Z,1012.4
2023-03-04T12:37:22.433Z,1012.4
2023-03-04T12:38:38.178Z,1012.4
2023-03-04T12:39:54.819Z,1012.4
2023-03-04T12:41:09.575Z,1012.4
2023-03-04T12:42:26.213Z,1012.4
2023-03-04T12:43:42.396Z,1012.4
2023-03-04T12:44:58.144Z,1012.3
2023-03-04T12:46:14.766Z,1012.4
2023-03-04T12:47:30.970Z,1012.4
2023-03-04T12:48:47.150Z,1012.3
2023-03-04T12:50:03.350Z,1012.4
2023-03-04T12:51:19.534Z,1012.4
2023-03-04T12:52:35.280Z,1012.4
2023-03-04T12:53:51.477Z,1012.4
2023-03-04T12:55:08.090Z,1012.4
2023-03-04T12:56:24.297Z,1012.4
2023-03-04T12:57:39.044Z,1012.4
2023-03-04T12:58:55.245Z,1012.5
2023-03-04T13:00:11.867Z,1012.4
2023-03-04T13:01:27.627Z,1012.3
2023-03-04T13:02:44.247Z,1012.4
2023-03-04T13:04:00.447Z,1012.4
2023-03-04T13:05:16.631Z,1012.3
2023-03-04T13:06:32.821Z,1012.4
2023-03-04T13:07:48.999Z,1012.4
2023-03-04T13:09:04.746Z,1012.4
2023-03-04T13:10:20.951Z,1012.4
2023-03-04T13:11:37.582Z,1012.3
2023-03-04T13:12:53.756Z,1012.3
2023-03-04T13:14:08.977Z,1012.3
2023-03-04T13:15:25.168Z,1012.3
2023-03-04T13:16:40.902Z,1012.4
2023-03-04T13:17:57.532Z,1012.4
2023-03-04T13:19:13.722Z,1012.4
2023-03-04T13:20:29.918Z,1012.4
2023-03-04T13:21:46.100Z,1012.3
2023-03-04T13:23:02.288Z,1012.4
2023-03-04T13:24:18.480Z,1012.4
2023-03-04T13:25:34.680Z,1012.4
2023-03-04T13:26:50.864Z,1012.4
2023-03-04T13:28:07.061Z,1012.3
2023-03-04T13:29:23.233Z,1012.4
2023-03-04T13:30:38.438Z,1012.5
2023-03-04T13:31:54.645Z,1012.4
2023-03-04T13:33:10.370Z,1012.4
2023-03-04T13:34:26.567Z,1012.4
2023-03-04T13:35:42.753Z,1012.4
2023-03-04T13:36:59.393Z,1012.4
2023-03-04T13:38:15.579Z,1012.4
2023-03-04T13:39:31.765Z,1012.5
2023-03-04T13:40:47.965Z,1012.4
2023-03-04T13:42:04.142Z,1012.5
2023-03-04T13:43:20.345Z,1012.5
2023-03-04T13:44:36.536Z,1012.5
2023-03-04T13:45:52.711Z,1012.5
2023-03-04T13:47:07.481Z,1012.4
2023-03-04T13:48:23.654Z,1012.5
2023-03-04T13:49:40.293Z,1012.5
2023-03-04T13:50:56.029Z,1012.4
2023-03-04T13:52:12.673Z,1012.5
2023-03-04T13:53:28.864Z,1012.5
2023-03-04T13:54:44.604Z,1012.5
2023-03-04T13:56:01.256Z,1012.5
2023-03-04T13:57:16.977Z,1012.4
2023-03-04T13:58:33.630Z,1012.5
2023-03-04T13:59:49.815Z,1012.5
2023-03-04T14:01:06.010Z,1012.5
2023-03-04T14:02:21.743Z,1012.4
2023-03-04T14:03:37.395Z,1012.4
2023-03-04T14:04:53.590Z,1012.5
2023-03-04T14:06:09.318Z,1012.4
2023-03-04T14:07:25.974Z,1012.4
2023-03-04T14:08:42.158Z,1012.4
2023-03-04T14:09:58.341Z,1012.5
2023-03-04T14:11:14.545Z,1012.5
2023-03-04T14:12:30.260Z,1012.5
2023-03-04T14:13:46.910Z,1012.4
2023-03-04T14:15:03.110Z,1012.4
2023-03-04T14:16:19.284Z,1012.4
2023-03-04T14:17:35.015Z,1012.5
2023-03-04T14:18:51.661Z,1012.4
2023-03-04T14:20:06.867Z,1012.5
2023-03-04T14:21:23.062Z,1012.4
2023-03-04T14:22:39.250Z,1012.4
2023-03-04T14:23:54.994Z,1012.3
2023-03-04T14:25:11.180Z,1012.4
2023-03-04T14:26:27.825Z,1012.4
2023-03-04T14:27:44.018Z,1012.4
2023-03-04T14:29:00.192Z,1012.4
2023-03-04T14:30:16.383Z,1012.4
2023-03-04T14:31:32.568Z,1012.4
2023-03-04T14:32:48.761Z,1012.4
2023-03-04T14:34:04.492Z,1012.3
2023-03-04T14:35:21.148Z,1012.5
2023-03-04T14:36:36.359Z,1012.3
2023-03-04T14:37:52.548Z,1012.4
2023-03-04T14:39:08.739Z,1012.4
2023-03-04T14:40:24.917Z,1012.4
2023-03-04T14:41:41.102Z,1012.3
2023-03-04T14:42:57.288Z,1012.3
2023-03-04T14:44:12.500Z,1012.5
2023-03-04T14:45:28.705Z,1012.3
2023-03-04T14:46:44.885Z,1012.4
2023-03-04T14:48:00.622Z,1012.3
2023-03-04T14:49:17.270Z,1012.3
2023-03-04T14:50:33.452Z,1012.3
2023-03-04T14:51:49.654Z,1012.3
2023-03-04T14:53:05.842Z,1012.4
2023-03-04T14:54:22.032Z,1012.4
2023-03-04T14:55:37.751Z,1012.4
2023-03-04T14:56:54.407Z,1012.3
2023-03-04T14:58:10.591Z,1012.5
2023-03-04T14:59:26.789Z,1012.3
2023-03-04T15:00:41.989Z,1012.4
2023-03-04T15:01:58.180Z,1012.4
2023-03-04T15:03:13.905Z,1012.3
2023-03-04T15:04:30.091Z,1012.4
2023-03-04T15:05:46.739Z,1012.4
2023-03-04T15:07:02.937Z,1012.3
2023-03-04T15:08:19.121Z,1012.3
2023-03-04T15:09:35.317Z,1012.3
2023-03-04T15:10:51.033Z,1012.3
2023-03-04T15:12:07.693Z,1012.3
2023-03-04T15:13:23.869Z,1012.2
2023-03-04T15:14:40.063Z,1012.3
2023-03-04T15:15:56.251Z,1012.3
2023-03-04T15:17:10.993Z,1012.3
2023-03-04T15:18:27.184Z,1012.3
2023-03-04T15:19:43.840Z,1012.2
2023-03-04T15:21:00.028Z,1012.3
2023-03-04T15:22:16.224Z,1012.3
2023-03-04T15:23:32.398Z,1012.1
2023-03-04T15:24:48.116Z,1012.1
2023-03-04T15:26:04.790Z,1012.1
2023-03-04T15:27:20.979Z,1012.1
2023-03-04T15:28:37.166Z,1012.2
2023-03-04T15:29:53.348Z,1012.2
2023-03-04T15:31:09.543Z,1012.2
2023-03-04T15:32:25.739Z,1012.1
2023-03-04T15:33:40.723Z,1012.2
2023-03-04T15:34:57.128Z,1012.2
2023-03-04T15:36:13.314Z,1012.2
2023-03-04T15:37:29.294Z,1012.2
2023-03-04T15:38:45.701Z,1012.2
2023-03-04T15:40:01.876Z,1012.1
2023-03-04T15:41:17.857Z,1012.2
2023-03-04T15:42:34.040Z,1012
2023-03-04T15:43:50.461Z,1012.1
2023-03-04T15:45:06.651Z,1012.1
2023-03-04T15:46:22.831Z,1012
2023-03-04T15:47:39.027Z,1012.1
2023-03-04T15:48:55.000Z,1012.1
2023-03-04T15:50:10.413Z,1012.1
2023-03-04T15:51:26.392Z,1012.1
2023-03-04T15:52:42.790Z,1012.1